Time;durP1;ratioP1;P1;durP2;ratioP2;P2;SDS_P1;SDS_P2;PMS_P1;PMS_P2;Temp;Humidity;BMP_temperature;BMP_pressure;BME280_temperature;BME280_humidity;BME280_pressure;Samples;Min_cycle;Max_cycle;Signal;HPM_P1;HPM_P2
2023/12/26 00:01:55;;;;;;;3.10;0.90;;;9.70;99.90;;;;;;5081320;28;20039;-68
2023/12/26 00:04:23;;;;;;;4.67;1.10;;;9.70;99.90;;;;;;5080056;28;20327;-68
2023/12/26 00:06:48;;;;;;;1.38;0.82;;;9.70;99.90;;;;;;5078331;28;20044;-68
2023/12/26 00:09:19;;;;;;;2.25;1.00;;;9.70;99.90;;;;;;5079642;28;20044;-68
2023/12/26 00:11:48;;;;;;;4.55;0.90;;;9.70;99.90;;;;;;5080028;28;20386;-68
2023/12/26 00:14:16;;;;;;;1.20;0.63;;;9.70;99.90;;;;;;5079459;28;20105;-68
2023/12/26 00:16:43;;;;;;;3.28;0.70;;;9.70;99.90;;;;;;5080791;28;20047;-68
2023/12/26 00:19:11;;;;;;;1.85;0.80;;;9.80;99.90;;;;;;5074543;28;20088;-68
2023/12/26 00:21:38;;;;;;;2.47;0.68;;;9.80;99.90;;;;;;5076178;28;20040;-68
2023/12/26 00:24:05;;;;;;;1.48;0.50;;;9.70;99.90;;;;;;5082343;28;20040;-68
2023/12/26 00:26:30;;;;;;;1.20;0.40;;;9.80;99.90;;;;;;5075377;28;20122;-68
2023/12/26 00:28:56;;;;;;;3.43;0.83;;;9.80;99.90;;;;;;5078645;28;20174;-68
2023/12/26 00:31:22;;;;;;;2.23;0.50;;;9.80;99.90;;;;;;5068365;28;20288;-68
2023/12/26 00:33:53;;;;;;;0.97;0.43;;;9.80;99.90;;;;;;5074229;28;20144;-68
2023/12/26 00:36:19;;;;;;;2.75;0.50;;;9.80;99.90;;;;;;5078402;28;20048;-68
2023/12/26 00:38:47;;;;;;;1.95;0.45;;;9.90;99.90;;;;;;5082679;28;20044;-68
2023/12/26 00:41:16;;;;;;;2.58;0.70;;;9.90;99.90;;;;;;5075368;28;20133;-68
2023/12/26 00:43:42;;;;;;;2.90;0.90;;;9.80;99.90;;;;;;5073218;28;20047;-68
2023/12/26 00:46:10;;;;;;;1.33;0.50;;;9.90;99.90;;;;;;5079876;28;20488;-68
2023/12/26 00:48:39;;;;;;;3.20;0.77;;;9.90;99.90;;;;;;5079503;28;20044;-68
2023/12/26 00:51:05;;;;;;;0.68;0.25;;;9.90;99.90;;;;;;5076993;28;20043;-68
2023/12/26 00:53:31;;;;;;;7.50;0.65;;;9.90;99.90;;;;;;5075158;28;20128;-68
2023/12/26 00:55:57;;;;;;;13.77;1.02;;;9.90;99.90;;;;;;5079382;28;20045;-68
2023/12/26 00:58:22;;;;;;;8.87;1.10;;;9.90;99.90;;;;;;5079553;28;20052;-68
2023/12/26 01:00:48;;;;;;;11.90;1.73;;;9.90;99.90;;;;;;5080391;28;20040;-68
2023/12/26 01:03:15;;;;;;;7.83;1.00;;;9.90;99.90;;;;;;5081375;28;20492;-68
2023/12/26 01:05:41;;;;;;;5.72;1.35;;;9.90;99.90;;;;;;5072895;28;20035;-69
2023/12/26 01:08:11;;;;;;;3.15;0.98;;;9.90;99.90;;;;;;5074963;28;20803;-68
2023/12/26 01:10:37;;;;;;;2.28;0.75;;;9.80;99.90;;;;;;5079235;28;20535;-68
2023/12/26 01:13:03;;;;;;;6.97;1.23;;;9.90;99.90;;;;;;5077226;28;20068;-68
2023/12/26 01:15:29;;;;;;;3.67;0.70;;;9.80;99.90;;;;;;5080372;28;20787;-68
2023/12/26 01:17:54;;;;;;;8.93;0.73;;;9.80;99.90;;;;;;5064942;28;20500;-68
2023/12/26 01:20:20;;;;;;;14.80;1.33;;;9.80;99.90;;;;;;5078461;28;20582;-68
2023/12/26 01:22:48;;;;;;;5.50;1.10;;;9.80;99.90;;;;;;5081196;28;20042;-68
2023/12/26 01:25:16;;;;;;;6.15;1.00;;;9.80;99.90;;;;;;5082277;28;20727;-68
2023/12/26 01:27:42;;;;;;;9.35;1.63;;;9.80;99.90;;;;;;5084624;28;20036;-67
2023/12/26 01:30:10;;;;;;;6.53;1.17;;;9.80;99.90;;;;;;5074524;28;20113;-68
2023/12/26 01:32:36;;;;;;;7.90;1.25;;;9.80;99.90;;;;;;5083875;28;20321;-68
2023/12/26 01:35:02;;;;;;;3.43;0.87;;;9.80;99.90;;;;;;5079328;28;20040;-68
2023/12/26 01:37:28;;;;;;;9.95;1.40;;;9.70;99.90;;;;;;5079814;28;20445;-68
2023/12/26 01:39:55;;;;;;;10.68;1.42;;;9.70;99.90;;;;;;5086586;28;20051;-68
2023/12/26 01:42:21;;;;;;;13.60;1.52;;;9.70;99.90;;;;;;5070367;28;20032;-68
2023/12/26 01:44:47;;;;;;;7.13;1.25;;;9.70;99.90;;;;;;5084921;28;20044;-68
2023/12/26 01:47:14;;;;;;;8.80;1.15;;;9.70;99.90;;;;;;5085436;28;20036;-68
2023/12/26 01:49:40;;;;;;;9.27;1.08;;;9.60;99.90;;;;;;5085518;28;20127;-69
2023/12/26 01:52:08;;;;;;;6.93;1.25;;;9.60;99.90;;;;;;5088565;28;20117;-69
2023/12/26 01:54:37;;;;;;;13.02;1.40;;;9.60;99.90;;;;;;5086633;28;20092;-69
2023/12/26 01:57:07;;;;;;;12.82;1.75;;;9.60;99.90;;;;;;5079969;28;20551;-68
2023/12/26 01:59:36;;;;;;;6.65;1.00;;;9.60;99.90;;;;;;5086419;28;20519;-69
2023/12/26 02:02:12;;;;;;;6.53;0.95;;;9.60;99.90;;;;;;4994208;28;20947;-69
2023/12/26 02:04:39;;;;;;;7.68;2.47;;;9.60;99.90;;;;;;5062552;28;20440;-70
2023/12/26 02:07:07;;;;;;;10.10;1.00;;;9.60;99.90;;;;;;5084313;28;20466;-70
2023/12/26 02:09:34;;;;;;;11.07;1.98;;;9.60;99.90;;;;;;5084941;28;20407;-70
2023/12/26 02:12:00;;;;;;;8.93;1.15;;;9.60;99.90;;;;;;5085072;28;20551;-69
2023/12/26 02:14:26;;;;;;;13.20;1.35;;;9.60;99.90;;;;;;5063905;28;20052;-69
2023/12/26 02:16:55;;;;;;;5.70;1.15;;;9.60;99.90;;;;;;5068863;28;20610;-69
2023/12/26 02:19:24;;;;;;;7.00;1.30;;;9.60;99.90;;;;;;5080307;28;20362;-71
2023/12/26 02:21:50;;;;;;;6.10;1.20;;;9.60;99.90;;;;;;5087189;28;20035;-70
2023/12/26 02:24:16;;;;;;;7.85;1.73;;;9.60;99.90;;;;;;5071176;28;20043;-69
2023/12/26 02:26:43;;;;;;;12.23;1.23;;;9.60;99.90;;;;;;5081352;28;20036;-69
2023/12/26 02:29:10;;;;;;;8.85;1.30;;;9.50;99.90;;;;;;5086115;28;20097;-69
2023/12/26 02:31:38;;;;;;;10.77;1.88;;;9.60;99.90;;;;;;5071091;28;20055;-69
2023/12/26 02:34:05;;;;;;;8.65;1.42;;;9.50;99.90;;;;;;5088326;28;20043;-69
2023/12/26 02:36:34;;;;;;;7.45;1.02;;;9.50;99.90;;;;;;5078193;28;20476;-70
2023/12/26 02:39:01;;;;;;;9.82;1.60;;;9.50;99.90;;;;;;5078012;28;20036;-69
2023/12/26 02:41:27;;;;;;;10.32;1.27;;;9.50;99.90;;;;;;5085861;28;20032;-69
2023/12/26 02:43:53;;;;;;;7.85;1.75;;;9.50;99.90;;;;;;5084993;28;20417;-69
2023/12/26 02:46:19;;;;;;;5.55;1.58;;;9.40;99.90;;;;;;5083374;28;20527;-69
2023/12/26 02:48:46;;;;;;;5.75;1.15;;;9.40;99.90;;;;;;5079020;28;20149;-69
2023/12/26 02:51:12;;;;;;;9.32;1.70;;;9.30;99.90;;;;;;5070373;28;20043;-70
2023/12/26 02:53:38;;;;;;;5.40;0.77;;;9.30;99.90;;;;;;5081222;28;20388;-70
2023/12/26 02:56:09;;;;;;;5.60;1.55;;;9.30;99.90;;;;;;5086609;28;20035;-69
2023/12/26 02:58:36;;;;;;;7.13;1.33;;;9.30;99.90;;;;;;5081556;28;20051;-70
2023/12/26 03:01:02;;;;;;;6.40;1.40;;;9.20;99.90;;;;;;5080240;28;20117;-69
2023/12/26 03:03:28;;;;;;;8.15;1.70;;;9.20;99.90;;;;;;5085710;28;20119;-70
2023/12/26 03:05:57;;;;;;;5.70;1.27;;;9.20;99.90;;;;;;5023513;28;20480;-68
2023/12/26 03:08:26;;;;;;;5.25;1.75;;;9.30;99.90;;;;;;5013709;28;20061;-69
2023/12/26 03:10:52;;;;;;;7.25;0.98;;;9.30;99.90;;;;;;5076846;28;20216;-69
2023/12/26 03:13:18;;;;;;;16.55;1.85;;;9.30;99.90;;;;;;5081574;28;20083;-69
2023/12/26 03:15:44;;;;;;;14.05;1.52;;;9.20;99.90;;;;;;5083709;28;20044;-69
2023/12/26 03:18:11;;;;;;;7.07;1.90;;;9.20;99.90;;;;;;5083433;28;20443;-69
2023/12/26 03:20:37;;;;;;;6.47;0.98;;;9.20;99.90;;;;;;5089004;28;20060;-69
2023/12/26 03:23:03;;;;;;;4.88;1.08;;;9.10;99.90;;;;;;5089293;28;20261;-69
2023/12/26 03:25:29;;;;;;;8.25;1.05;;;9.10;99.90;;;;;;5089274;28;20055;-69
2023/12/26 03:27:55;;;;;;;7.88;1.55;;;9.10;99.90;;;;;;5088161;28;20032;-69
2023/12/26 03:30:21;;;;;;;12.63;1.75;;;9.00;99.90;;;;;;5085039;28;20122;-69
2023/12/26 03:32:47;;;;;;;8.40;0.90;;;8.90;99.90;;;;;;5082731;28;20048;-69
2023/12/26 03:35:14;;;;;;;9.02;1.52;;;8.90;99.90;;;;;;5082868;28;20039;-69
2023/12/26 03:37:40;;;;;;;12.73;2.00;;;8.90;99.90;;;;;;5089977;28;20485;-69
2023/12/26 03:40:07;;;;;;;11.85;1.52;;;8.80;99.90;;;;;;5086723;28;20127;-69
2023/12/26 03:42:33;;;;;;;8.07;1.60;;;8.80;99.90;;;;;;5089770;27;20204;-69
2023/12/26 03:44:59;;;;;;;5.50;1.35;;;8.70;99.90;;;;;;5087377;28;20047;-68
2023/12/26 03:47:25;;;;;;;9.50;2.28;;;8.60;99.90;;;;;;5084222;28;20124;-68
2023/12/26 03:49:52;;;;;;;12.40;1.65;;;8.60;99.90;;;;;;5086396;28;20507;-68
2023/12/26 03:52:18;;;;;;;8.90;1.65;;;8.50;99.90;;;;;;5082519;28;20513;-68
2023/12/26 03:54:44;;;;;;;10.95;1.88;;;8.50;99.90;;;;;;5089413;28;20284;-68
2023/12/26 03:57:10;;;;;;;11.35;1.52;;;8.40;99.90;;;;;;5086101;28;20043;-68
2023/12/26 03:59:37;;;;;;;8.68;1.58;;;8.40;99.90;;;;;;5087404;28;20046;-68
2023/12/26 04:02:03;;;;;;;13.10;2.05;;;8.40;99.90;;;;;;5082991;28;20048;-68
2023/12/26 04:04:29;;;;;;;26.05;2.33;;;8.40;99.90;;;;;;5091659;28;20199;-68
2023/12/26 04:06:55;;;;;;;10.98;2.72;;;8.30;99.90;;;;;;5088405;28;20233;-68
2023/12/26 04:09:23;;;;;;;13.90;2.17;;;8.30;99.90;;;;;;5087086;28;20063;-68
2023/12/26 04:11:49;;;;;;;6.65;1.50;;;8.30;99.90;;;;;;5086747;28;20789;-68
2023/12/26 04:14:18;;;;;;;15.32;1.77;;;8.30;99.90;;;;;;5086977;28;20525;-68
2023/12/26 04:16:44;;;;;;;21.08;2.35;;;8.30;99.90;;;;;;5088309;28;20051;-69
2023/12/26 04:19:11;;;;;;;11.02;1.52;;;8.20;99.90;;;;;;5082639;28;20048;-70
2023/12/26 04:21:37;;;;;;;9.80;1.52;;;8.20;99.90;;;;;;5081096;28;20036;-71
2023/12/26 04:24:06;;;;;;;8.38;1.77;;;8.20;99.90;;;;;;5085185;28;20447;-70
2023/12/26 04:26:31;;;;;;;8.15;1.95;;;8.20;99.90;;;;;;5083756;28;20186;-70
2023/12/26 04:28:57;;;;;;;10.07;2.30;;;8.20;99.90;;;;;;5088587;28;20135;-70
2023/12/26 04:31:23;;;;;;;7.47;1.93;;;8.20;99.90;;;;;;5084936;28;20032;-81
2023/12/26 04:33:48;;;;;;;4.67;1.67;;;8.20;99.90;;;;;;5076105;28;20146;-70
2023/12/26 04:36:14;;;;;;;12.60;1.60;;;8.10;99.90;;;;;;5095291;28;20044;-70
2023/12/26 04:38:41;;;;;;;9.13;1.30;;;8.10;99.90;;;;;;5085748;28;20307;-70
2023/12/26 04:41:11;;;;;;;8.38;1.30;;;8.10;99.90;;;;;;5087319;28;20043;-70
2023/12/26 04:43:37;;;;;;;9.88;1.75;;;8.10;99.90;;;;;;5090918;28;20046;-70
2023/12/26 04:46:03;;;;;;;15.32;2.08;;;8.10;99.90;;;;;;5093097;28;20036;-70
2023/12/26 04:48:29;;;;;;;11.45;1.88;;;8.10;99.90;;;;;;5092539;28;20530;-70
2023/12/26 04:50:54;;;;;;;9.93;1.77;;;8.10;99.90;;;;;;5085137;28;20036;-70
2023/12/26 04:53:24;;;;;;;7.93;2.33;;;8.10;99.90;;;;;;5088411;28;20040;-70
2023/12/26 04:55:50;;;;;;;7.03;2.28;;;8.00;99.90;;;;;;5094007;28;20093;-70
2023/12/26 04:58:16;;;;;;;11.07;1.40;;;8.10;99.90;;;;;;5087544;28;20040;-73
2023/12/26 05:00:43;;;;;;;8.83;1.27;;;8.00;99.90;;;;;;5088595;28;20404;-70
2023/12/26 05:03:09;;;;;;;8.15;2.58;;;8.00;99.90;;;;;;5077450;28;20040;-70
2023/12/26 05:05:34;;;;;;;6.27;1.23;;;8.00;99.90;;;;;;5081875;28;20093;-71
2023/12/26 05:08:02;;;;;;;9.87;1.63;;;8.10;99.90;;;;;;5090091;28;20089;-71
2023/12/26 05:10:28;;;;;;;13.52;2.47;;;8.10;99.90;;;;;;5079873;28;20488;-71
2023/12/26 05:12:54;;;;;;;8.70;1.87;;;8.20;99.90;;;;;;5079637;28;20139;-71
2023/12/26 05:15:19;;;;;;;8.10;1.67;;;8.20;99.90;;;;;;5081271;28;20504;-71
2023/12/26 05:17:47;;;;;;;10.17;1.67;;;8.20;99.90;;;;;;5083313;28;20519;-71
2023/12/26 05:20:13;;;;;;;9.40;2.13;;;8.30;99.90;;;;;;5083765;28;20047;-71
2023/12/26 05:22:39;;;;;;;8.30;1.53;;;8.30;99.90;;;;;;5085389;28;20039;-71
2023/12/26 05:25:05;;;;;;;10.10;1.80;;;8.30;99.90;;;;;;5084942;28;20273;-71
2023/12/26 05:27:30;;;;;;;8.80;1.20;;;8.30;99.90;;;;;;5092123;28;20031;-71
2023/12/26 05:29:59;;;;;;;11.70;1.83;;;8.40;99.90;;;;;;5078530;28;20044;-71
2023/12/26 05:32:24;;;;;;;8.68;1.73;;;8.40;99.90;;;;;;5069101;28;20092;-71
2023/12/26 05:34:55;;;;;;;9.27;1.80;;;8.40;99.90;;;;;;5084605;28;20416;-71
2023/12/26 05:37:21;;;;;;;12.32;1.58;;;8.40;99.90;;;;;;5084732;28;20039;-71
2023/12/26 05:39:47;;;;;;;16.55;1.10;;;8.40;99.90;;;;;;5070318;28;20051;-71
2023/12/26 05:42:12;;;;;;;4.90;1.57;;;8.50;99.90;;;;;;5082273;28;20174;-71
2023/12/26 05:44:39;;;;;;;11.60;2.43;;;8.50;99.90;;;;;;5081737;28;20040;-71
2023/12/26 05:47:05;;;;;;;8.82;1.75;;;8.60;99.90;;;;;;5083436;28;20610;-71
2023/12/26 05:49:33;;;;;;;9.07;1.77;;;8.60;99.90;;;;;;5089531;28;20054;-71
2023/12/26 05:51:59;;;;;;;7.50;1.83;;;8.70;99.90;;;;;;5081633;28;20056;-70
2023/12/26 05:54:25;;;;;;;5.40;1.70;;;8.70;99.90;;;;;;5083564;28;20089;-71
2023/12/26 05:56:50;;;;;;;9.77;1.83;;;8.70;99.90;;;;;;5101100;27;20039;-70
2023/12/26 05:59:16;;;;;;;3.70;0.97;;;8.70;99.90;;;;;;5083695;28;20131;-71
2023/12/26 06:01:48;;;;;;;7.53;1.43;;;8.80;99.90;;;;;;5078979;28;20120;-70
2023/12/26 06:04:13;;;;;;;6.13;1.13;;;8.70;99.90;;;;;;5076619;28;20071;-71
2023/12/26 06:06:39;;;;;;;15.60;2.10;;;8.70;99.90;;;;;;5087325;28;20032;-70
2023/12/26 06:09:04;;;;;;;7.97;1.57;;;8.70;99.90;;;;;;5087146;28;20036;-70
2023/12/26 06:11:30;;;;;;;9.43;1.37;;;8.70;99.90;;;;;;5088585;28;20036;-71
2023/12/26 06:13:56;;;;;;;11.60;1.43;;;8.70;99.90;;;;;;5083520;28;20189;-71
2023/12/26 06:16:21;;;;;;;15.20;2.37;;;8.70;99.90;;;;;;5080537;28;20135;-70
2023/12/26 06:18:47;;;;;;;6.83;1.33;;;8.60;99.90;;;;;;5088139;28;20067;-70
2023/12/26 06:21:13;;;;;;;5.50;0.73;;;8.60;99.90;;;;;;5088350;28;20036;-71
2023/12/26 06:23:38;;;;;;;8.53;1.40;;;8.50;99.90;;;;;;5075735;28;20461;-70
2023/12/26 06:26:04;;;;;;;8.07;1.90;;;8.40;99.90;;;;;;5081874;28;20044;-70
2023/12/26 06:28:30;;;;;;;9.25;1.55;;;8.40;99.90;;;;;;5087925;28;20128;-70
2023/12/26 06:30:56;;;;;;;16.90;3.17;;;8.40;99.90;;;;;;5084903;28;20055;-70
2023/12/26 06:33:22;;;;;;;11.67;1.57;;;8.40;99.90;;;;;;5087358;28;20918;-70
2023/12/26 06:35:49;;;;;;;10.33;1.87;;;8.40;99.90;;;;;;5085991;28;20518;-70
2023/12/26 06:38:15;;;;;;;11.25;1.60;;;8.40;99.90;;;;;;5084120;28;20044;-70
2023/12/26 06:40:41;;;;;;;10.00;2.10;;;8.40;99.90;;;;;;5084720;28;20159;-70
2023/12/26 06:43:07;;;;;;;;;;;8.40;99.90;;;;;;5084053;28;20068;-70
2023/12/26 06:45:33;;;;;;;6.78;1.50;;;8.40;99.90;;;;;;5077109;28;19931;-71
2023/12/26 06:47:59;;;;;;;11.00;1.73;;;8.40;99.90;;;;;;5078381;28;20044;-71
2023/12/26 06:50:24;;;;;;;15.15;1.40;;;8.40;99.90;;;;;;5084780;28;20485;-71
2023/12/26 06:52:50;;;;;;;11.13;2.50;;;8.30;99.90;;;;;;5084992;28;20134;-70
2023/12/26 06:55:16;;;;;;;7.43;2.07;;;8.30;99.90;;;;;;5077321;28;20079;-70
2023/12/26 06:57:47;;;;;;;13.43;1.63;;;8.30;99.90;;;;;;5078313;28;20039;-70
2023/12/26 07:00:13;;;;;;;12.38;1.60;;;8.30;99.90;;;;;;5086896;28;20507;-72
2023/12/26 07:02:42;;;;;;;8.88;2.10;;;8.40;99.90;;;;;;5080647;28;20032;-72
2023/12/26 07:05:11;;;;;;;9.20;1.80;;;8.30;99.90;;;;;;5074758;28;20044;-71
2023/12/26 07:07:36;;;;;;;5.88;1.60;;;8.30;99.90;;;;;;5084483;28;20040;-71
2023/12/26 07:10:05;;;;;;;12.43;2.40;;;8.30;99.90;;;;;;5082867;28;20333;-72
2023/12/26 07:12:30;;;;;;;17.77;2.25;;;8.30;99.90;;;;;;5082897;28;20128;-72
2023/12/26 07:14:56;;;;;;;7.43;1.50;;;8.30;99.90;;;;;;5083666;28;20502;-71
2023/12/26 07:17:23;;;;;;;21.13;2.83;;;8.30;99.90;;;;;;5087478;28;20050;-72
2023/12/26 07:19:49;;;;;;;9.75;1.50;;;8.30;99.90;;;;;;5084702;28;20415;-71
2023/12/26 07:22:14;;;;;;;16.00;2.30;;;8.30;99.90;;;;;;5085105;28;20035;-72
2023/12/26 07:24:40;;;;;;;14.63;2.20;;;8.30;99.90;;;;;;5083487;28;20377;-71
2023/12/26 07:27:07;;;;;;;7.67;1.50;;;8.30;99.90;;;;;;5079933;28;20416;-71
2023/12/26 07:29:33;;;;;;;7.50;1.58;;;8.30;99.90;;;;;;5069008;28;20040;-71
2023/12/26 07:31:58;;;;;;;12.40;1.60;;;8.30;99.90;;;;;;5081777;28;20431;-71
2023/12/26 07:34:24;;;;;;;11.83;2.10;;;8.30;99.90;;;;;;5085209;28;20195;-72
2023/12/26 07:36:50;;;;;;;10.47;1.33;;;8.30;99.90;;;;;;5083140;28;20093;-72
2023/12/26 07:39:15;;;;;;;11.40;1.47;;;8.30;99.90;;;;;;5086630;28;20040;-72
2023/12/26 07:41:41;;;;;;;7.27;1.00;;;8.30;99.90;;;;;;5084119;28;20700;-72
2023/12/26 07:44:07;;;;;;;11.77;2.30;;;8.30;99.90;;;;;;5081691;28;20073;-71
2023/12/26 07:46:33;;;;;;;10.25;2.15;;;8.30;99.90;;;;;;5088084;28;20043;-71
2023/12/26 07:48:58;;;;;;;10.13;1.57;;;8.30;99.90;;;;;;5063527;28;20139;-72
2023/12/26 07:51:24;;;;;;;13.73;2.67;;;8.30;99.90;;;;;;5081314;28;20036;-72
2023/12/26 07:53:52;;;;;;;13.37;3.13;;;8.30;99.90;;;;;;5075560;28;20036;-71
2023/12/26 07:56:18;;;;;;;15.70;1.80;;;8.30;99.90;;;;;;5079133;28;20048;-71
2023/12/26 07:58:45;;;;;;;10.97;2.03;;;8.30;99.90;;;;;;5076201;28;20050;-71
2023/12/26 08:01:12;;;;;;;7.60;1.30;;;8.30;99.90;;;;;;5061232;28;20484;-71
2023/12/26 08:03:37;;;;;;;13.43;2.00;;;8.30;99.90;;;;;;5079395;28;20044;-71
2023/12/26 08:06:03;;;;;;;18.50;2.00;;;8.40;99.90;;;;;;5086510;28;20036;-71
2023/12/26 08:08:29;;;;;;;8.15;1.77;;;8.30;99.90;;;;;;5084321;28;20040;-71
2023/12/26 08:10:55;;;;;;;10.23;1.60;;;8.30;99.90;;;;;;5079627;28;20040;-71
2023/12/26 08:13:20;;;;;;;9.57;3.13;;;8.40;99.90;;;;;;5088690;28;20078;-71
2023/12/26 08:15:46;;;;;;;13.17;2.07;;;8.40;99.90;;;;;;5088820;28;20040;-71
2023/12/26 08:18:11;;;;;;;12.50;1.83;;;8.40;99.90;;;;;;5083154;28;20096;-71
2023/12/26 08:20:37;;;;;;;14.33;2.03;;;8.40;99.90;;;;;;5090032;28;20070;-71
2023/12/26 08:23:03;;;;;;;14.05;2.10;;;8.40;99.90;;;;;;5089234;28;20574;-71
2023/12/26 08:25:29;;;;;;;9.93;1.67;;;8.30;99.90;;;;;;5086090;28;20048;-71
2023/12/26 08:27:55;;;;;;;7.17;1.50;;;8.40;99.90;;;;;;5088200;28;20509;-71
2023/12/26 08:30:20;;;;;;;12.90;1.90;;;8.40;99.90;;;;;;5088573;28;20401;-71
2023/12/26 08:32:46;;;;;;;10.83;1.47;;;8.40;99.90;;;;;;5070409;28;20051;-71
2023/12/26 08:35:12;;;;;;;14.43;1.83;;;8.40;99.90;;;;;;5080210;28;20040;-72
2023/12/26 08:37:38;;;;;;;17.40;2.72;;;8.40;99.90;;;;;;5079198;28;20039;-72
2023/12/26 08:40:04;;;;;;;8.77;1.60;;;8.40;99.90;;;;;;5085493;28;20044;-72
2023/12/26 08:42:30;;;;;;;10.73;2.10;;;8.40;99.90;;;;;;5084992;28;20036;-71
2023/12/26 08:44:55;;;;;;;8.73;2.40;;;8.40;99.90;;;;;;5087530;28;20070;-71
2023/12/26 08:47:21;;;;;;;13.80;1.90;;;8.50;99.90;;;;;;5088789;28;20042;-71
2023/12/26 08:49:47;;;;;;;6.13;1.97;;;8.50;99.90;;;;;;5087503;28;20094;-71
2023/12/26 08:52:13;;;;;;;9.07;1.60;;;8.50;99.90;;;;;;5082358;28;20500;-72
2023/12/26 08:54:41;;;;;;;9.00;1.85;;;8.50;99.90;;;;;;5086272;28;20119;-72
2023/12/26 08:57:07;;;;;;;9.88;1.85;;;8.50;99.90;;;;;;5079720;28;20503;-71
2023/12/26 08:59:32;;;;;;;7.83;2.07;;;8.50;99.90;;;;;;5086881;28;20068;-71
2023/12/26 09:01:58;;;;;;;11.87;1.53;;;8.60;99.90;;;;;;5085234;28;20574;-71
2023/12/26 09:04:26;;;;;;;16.83;2.83;;;8.60;99.90;;;;;;5082926;28;20039;-71
2023/12/26 09:06:53;;;;;;;12.18;2.33;;;8.60;99.90;;;;;;5086111;28;20052;-72
2023/12/26 09:09:18;;;;;;;9.95;1.60;;;8.60;99.90;;;;;;5067951;28;20044;-71
2023/12/26 09:11:44;;;;;;;14.27;1.53;;;8.60;99.90;;;;;;5080998;28;20036;-72
2023/12/26 09:14:10;;;;;;;14.18;2.95;;;8.60;99.90;;;;;;5083668;28;20040;-71
2023/12/26 09:16:36;;;;;;;14.43;1.80;;;8.60;99.90;;;;;;5081156;28;20079;-71
2023/12/26 09:19:01;;;;;;;7.93;1.60;;;8.70;99.90;;;;;;5079525;28;20063;-71
2023/12/26 09:21:27;;;;;;;12.63;1.60;;;8.60;99.90;;;;;;5079230;28;20492;-71
2023/12/26 09:23:53;;;;;;;11.53;1.57;;;8.60;99.90;;;;;;5079092;28;20134;-71
2023/12/26 09:26:24;;;;;;;16.40;2.60;;;8.60;99.90;;;;;;5087336;28;20043;-71
2023/12/26 09:28:50;;;;;;;6.75;1.20;;;8.60;99.90;;;;;;5087005;28;20035;-71
2023/12/26 09:31:16;;;;;;;9.48;1.70;;;8.70;99.90;;;;;;5075841;28;20101;-71
2023/12/26 09:33:41;;;;;;;17.67;1.87;;;8.70;99.90;;;;;;5087611;28;20047;-71
2023/12/26 09:36:07;;;;;;;13.07;3.23;;;8.70;99.90;;;;;;5081279;28;20296;-71
2023/12/26 09:38:33;;;;;;;19.52;3.08;;;8.70;99.90;;;;;;5085327;28;20440;-71
2023/12/26 09:40:59;;;;;;;9.00;1.40;;;8.70;99.90;;;;;;5085147;28;20101;-69
2023/12/26 09:43:25;;;;;;;10.15;1.88;;;8.70;99.90;;;;;;5094926;27;20101;-70
2023/12/26 09:45:51;;;;;;;9.07;1.97;;;8.80;99.90;;;;;;5081392;28;20040;-70
2023/12/26 09:48:17;;;;;;;7.50;1.42;;;8.80;99.90;;;;;;5086680;28;20073;-72
2023/12/26 09:50:43;;;;;;;17.05;2.75;;;8.80;99.90;;;;;;5083174;28;20507;-70
2023/12/26 09:53:09;;;;;;;17.45;1.77;;;8.90;99.90;;;;;;5080589;28;20040;-70
2023/12/26 09:55:35;;;;;;;10.05;3.50;;;9.00;99.90;;;;;;5083452;28;20044;-69
2023/12/26 09:58:02;;;;;;;8.15;1.88;;;9.10;99.90;;;;;;5077271;28;20051;-70
2023/12/26 10:00:27;;;;;;;13.35;2.10;;;9.10;99.90;;;;;;5070769;28;20476;-70
2023/12/26 10:02:53;;;;;;;11.85;2.80;;;9.10;99.90;;;;;;5068146;28;20030;-69
2023/12/26 10:05:20;;;;;;;9.85;1.98;;;9.10;99.90;;;;;;5078418;28;20035;-69
2023/12/26 10:07:45;;;;;;;21.27;2.08;;;9.10;99.90;;;;;;5084333;28;20028;-69
2023/12/26 10:10:20;;;;;;;9.30;1.27;;;9.10;99.90;;;;;;5076338;28;20051;-69
2023/12/26 10:12:47;;;;;;;13.43;1.52;;;9.10;99.90;;;;;;5081918;28;20689;-69
2023/12/26 10:15:13;;;;;;;5.82;2.03;;;9.10;99.90;;;;;;5082613;28;20138;-70
2023/12/26 10:17:44;;;;;;;15.73;2.40;;;9.00;99.90;;;;;;5076044;28;20120;-70
2023/12/26 10:20:19;;;;;;;12.50;2.33;;;9.10;99.90;;;;;;5074143;28;20535;-70
2023/12/26 10:22:45;;;;;;;9.85;2.63;;;9.00;99.90;;;;;;5067215;28;20046;-70
2023/12/26 10:25:12;;;;;;;16.42;1.85;;;9.00;99.90;;;;;;5067617;28;20416;-71
2023/12/26 10:27:54;;;;;;;13.18;1.58;;;9.10;99.90;;;;;;5083303;28;20581;-71
2023/12/26 10:30:29;;;;;;;8.13;1.60;;;9.00;99.90;;;;;;5072560;28;20070;-72
2023/12/26 10:33:03;;;;;;;18.55;1.90;;;9.00;99.90;;;;;;5084967;28;20059;-71
2023/12/26 10:35:29;;;;;;;8.98;1.75;;;9.00;99.90;;;;;;5088636;28;20031;-71
2023/12/26 10:37:56;;;;;;;15.32;2.42;;;9.00;99.90;;;;;;5089811;28;20062;-72
2023/12/26 10:40:23;;;;;;;20.60;3.20;;;9.10;99.90;;;;;;5082021;28;20422;-71
2023/12/26 10:42:50;;;;;;;11.45;1.33;;;9.10;99.90;;;;;;5084468;28;20202;-72
2023/12/26 10:45:20;;;;;;;6.82;2.40;;;9.10;99.90;;;;;;5074094;28;20052;-72
2023/12/26 10:47:48;;;;;;;14.63;3.03;;;9.10;99.90;;;;;;5074928;28;20530;-72
2023/12/26 10:50:19;;;;;;;10.45;2.28;;;9.10;99.90;;;;;;5075579;28;20044;-72
2023/12/26 10:53:14;;;;;;;12.25;2.60;;;9.10;99.90;;;;;;5077397;28;20290;-72
2023/12/26 10:55:43;;;;;;;12.82;2.08;;;9.10;99.90;;;;;;5066321;28;20264;-71
2023/12/26 10:58:29;;;;;;;15.38;2.20;;;9.00;99.90;;;;;;5075320;28;20052;-71
2023/12/26 13:53:17;;;;;;;6.25;1.00;;;8.50;99.90;;;;;;5081739;28;20043;-69
2023/12/26 13:56:20;;;;;;;7.38;1.35;;;8.50;99.90;;;;;;5072764;28;20530;-69
2023/12/26 13:59:23;;;;;;;7.45;1.33;;;8.50;99.90;;;;;;5075005;28;20508;-69
2023/12/26 14:02:26;;;;;;;4.93;0.82;;;8.40;99.90;;;;;;5073731;28;20704;-69
2023/12/26 14:05:29;;;;;;;4.82;0.70;;;8.30;99.90;;;;;;5070608;28;20040;-71
2023/12/26 14:08:33;;;;;;;10.32;1.17;;;8.30;99.90;;;;;;5075515;28;20462;-71
2023/12/26 14:11:35;;;;;;;3.10;1.20;;;8.30;99.90;;;;;;5070083;28;20060;-70
2023/12/26 14:14:39;;;;;;;3.22;0.70;;;8.20;99.90;;;;;;5073217;28;20044;-69
2023/12/26 14:17:42;;;;;;;5.05;0.73;;;8.20;99.90;;;;;;5068327;28;20044;-69
2023/12/26 14:20:45;;;;;;;6.43;1.33;;;8.20;99.90;;;;;;5075858;28;20044;-68
2023/12/26 14:23:48;;;;;;;2.75;0.50;;;8.20;99.90;;;;;;5067276;28;20031;-68
2023/12/26 14:26:52;;;;;;;3.95;0.90;;;8.20;99.90;;;;;;5068665;28;20461;-68
2023/12/26 14:29:55;;;;;;;2.97;0.43;;;8.20;99.90;;;;;;5072935;28;20511;-68
2023/12/26 14:32:58;;;;;;;6.07;0.88;;;8.10;99.90;;;;;;5073404;28;20075;-69
2023/12/26 14:36:01;;;;;;;3.35;0.57;;;8.00;99.90;;;;;;5074944;28;20047;-69
2023/12/26 14:39:05;;;;;;;3.50;0.40;;;8.00;99.90;;;;;;5078834;28;20082;-69
2023/12/26 14:42:09;;;;;;;4.00;1.15;;;7.90;99.90;;;;;;5075696;28;20055;-70
2023/12/26 14:45:12;;;;;;;2.85;0.90;;;7.80;99.90;;;;;;5074028;28;20067;-71
2023/12/26 14:48:15;;;;;;;4.10;0.88;;;7.70;99.90;;;;;;5074482;28;20053;-70
2023/12/26 14:51:18;;;;;;;5.82;1.00;;;7.70;99.90;;;;;;5075766;28;20911;-70
2023/12/26 14:53:44;;;;;;;2.92;0.70;;;7.60;99.90;;;;;;5072783;28;20040;-70
2023/12/26 14:56:10;;;;;;;7.37;0.63;;;7.60;99.90;;;;;;5073990;28;20036;-70
2023/12/26 14:58:35;;;;;;;3.27;0.97;;;7.50;99.90;;;;;;5076754;28;20035;-70
2023/12/26 15:01:02;;;;;;;3.80;0.93;;;7.50;99.90;;;;;;5073214;28;20544;-70
2023/12/26 15:03:29;;;;;;;;;;;7.50;99.90;;;;;;5074002;28;20040;-70
2023/12/26 15:05:59;;;;;;;3.60;0.60;;;7.50;99.90;;;;;;5076161;28;19930;-70
2023/12/26 15:08:24;;;;;;;3.77;1.27;;;7.50;99.90;;;;;;5075924;28;20361;-70
2023/12/26 15:10:50;;;;;;;7.47;1.00;;;7.60;99.90;;;;;;5079186;28;20147;-70
2023/12/26 15:13:16;;;;;;;4.70;1.17;;;7.50;99.90;;;;;;5073851;28;20557;-70
2023/12/26 15:15:42;;;;;;;2.43;0.80;;;7.40;99.90;;;;;;5078715;28;20665;-70
2023/12/26 15:18:07;;;;;;;4.13;0.90;;;7.50;99.90;;;;;;5072092;28;20116;-71
2023/12/26 15:20:33;;;;;;;4.57;1.13;;;7.50;99.90;;;;;;5075435;28;20534;-71
2023/12/26 15:22:59;;;;;;;5.93;1.50;;;7.40;99.90;;;;;;5073836;28;20096;-70
2023/12/26 15:25:24;;;;;;;11.33;1.77;;;7.40;99.90;;;;;;5083755;28;20376;-71
2023/12/26 15:27:50;;;;;;;4.87;0.63;;;7.30;99.90;;;;;;5078022;28;20173;-70
2023/12/26 15:30:16;;;;;;;2.10;0.70;;;7.20;99.90;;;;;;5072349;28;20478;-70
2023/12/26 15:32:41;;;;;;;5.88;1.00;;;7.20;99.90;;;;;;5077639;28;20739;-71
2023/12/26 15:35:08;;;;;;;3.50;0.93;;;7.20;99.90;;;;;;5076009;28;20503;-71
2023/12/26 15:37:34;;;;;;;2.13;0.80;;;7.10;99.90;;;;;;5078947;28;20932;-72
2023/12/26 15:40:00;;;;;;;7.55;1.33;;;7.00;99.90;;;;;;5029001;28;1524775;-69
2023/12/26 15:42:27;;;;;;;11.55;0.95;;;7.00;99.90;;;;;;5062088;28;20525;-69
2023/12/26 15:44:53;;;;;;;2.30;0.85;;;7.00;99.90;;;;;;5082308;28;20052;-70
2023/12/26 15:47:19;;;;;;;7.43;1.48;;;6.90;99.90;;;;;;5062257;28;20056;-70
2023/12/26 15:49:45;;;;;;;6.70;1.40;;;6.90;99.90;;;;;;5064076;28;20098;-71
2023/12/26 15:52:11;;;;;;;3.10;1.27;;;6.80;99.90;;;;;;5075585;28;20473;-70
2023/12/26 15:54:39;;;;;;;6.80;1.20;;;6.80;99.90;;;;;;5075864;28;20513;-70